createdAt,value
2023-02-26T00:00:10.515Z,2.89
2023-02-26T00:01:10.466Z,2.85
2023-02-26T00:02:10.484Z,2.85
2023-02-26T00:03:10.510Z,2.93
2023-02-26T00:04:10.440Z,2.86
2023-02-26T00:05:10.430Z,2.83
2023-02-26T00:06:10.470Z,2.93
2023-02-26T00:07:10.399Z,2.83
2023-02-26T00:08:10.388Z,2.90
2023-02-26T00:09:10.419Z,2.85
2023-02-26T00:10:10.367Z,2.92
2023-02-26T00:11:10.384Z,2.87
2023-02-26T00:12:10.376Z,2.86
2023-02-26T00:13:10.348Z,2.87
2023-02-26T00:14:10.327Z,2.93
2023-02-26T00:15:10.310Z,2.80
2023-02-26T00:16:10.305Z,2.83
2023-02-26T00:17:10.735Z,2.87
2023-02-26T00:18:10.327Z,2.86
2023-02-26T00:19:10.269Z,2.80
2023-02-26T00:20:10.255Z,2.95
2023-02-26T00:21:10.250Z,2.85
2023-02-26T00:22:10.258Z,2.85
2023-02-26T00:23:10.220Z,2.86
2023-02-26T00:24:10.246Z,2.86
2023-02-26T00:25:10.208Z,2.90
2023-02-26T00:26:10.188Z,2.87
2023-02-26T00:27:10.205Z,2.86
2023-02-26T00:28:10.170Z,2.89
2023-02-26T00:29:10.157Z,2.90
2023-02-26T00:30:10.178Z,2.80
2023-02-26T00:31:10.203Z,2.89
2023-02-26T00:32:10.261Z,2.90
2023-02-26T00:33:10.113Z,2.89
2023-02-26T00:34:10.102Z,2.87
2023-02-26T00:35:10.102Z,2.87
2023-02-26T00:36:10.120Z,2.92
2023-02-26T00:37:10.088Z,2.85
2023-02-26T00:38:10.057Z,2.93
2023-02-26T00:39:10.041Z,2.92
2023-02-26T00:40:10.057Z,2.93
2023-02-26T00:41:10.068Z,2.86
2023-02-26T00:42:10.065Z,2.86
2023-02-26T00:43:10.029Z,2.90
2023-02-26T00:44:10.013Z,2.87
2023-02-26T00:45:09.981Z,2.80
2023-02-26T00:46:10.016Z,2.86
2023-02-26T00:47:10.025Z,2.87
2023-02-26T00:48:09.982Z,2.86
2023-02-26T00:49:09.938Z,2.89
2023-02-26T00:50:09.925Z,2.86
2023-02-26T00:51:09.914Z,2.80
2023-02-26T00:52:09.900Z,2.92
2023-02-26T00:53:09.941Z,2.85
2023-02-26T00:54:09.905Z,2.92
2023-02-26T00:55:09.982Z,2.83
2023-02-26T00:56:09.860Z,2.87
2023-02-26T00:57:09.861Z,2.90
2023-02-26T00:58:09.832Z,2.82
2023-02-26T00:59:09.852Z,2.90
2023-02-26T01:00:09.924Z,2.87
2023-02-26T01:01:09.820Z,2.85
2023-02-26T01:02:09.800Z,2.90
2023-02-26T01:03:09.783Z,2.86
2023-02-26T01:04:09.802Z,2.89
2023-02-26T01:05:09.768Z,2.95
2023-02-26T01:06:09.808Z,2.90
2023-02-26T01:07:09.761Z,3.04
2023-02-26T01:08:09.721Z,3.01
2023-02-26T01:09:09.749Z,3.08
2023-02-26T01:10:09.730Z,3.01
2023-02-26T01:11:09.692Z,3.08
2023-02-26T01:12:09.750Z,3.11
2023-02-26T01:13:09.661Z,3.04
2023-02-26T01:14:09.662Z,3.03
2023-02-26T01:15:09.667Z,3.01
2023-02-26T01:16:09.686Z,3.05
2023-02-26T01:17:09.632Z,3.05
2023-02-26T01:18:10.708Z,3.07
2023-02-26T01:19:09.602Z,3.00
2023-02-26T01:20:09.598Z,2.97
2023-02-26T01:21:09.575Z,2.97
2023-02-26T01:22:09.563Z,2.97
2023-02-26T01:23:09.563Z,2.86
2023-02-26T01:24:09.565Z,2.86
2023-02-26T01:25:09.528Z,2.86
2023-02-26T01:26:09.522Z,2.87
2023-02-26T01:27:09.507Z,2.83
2023-02-26T01:28:09.502Z,2.86
2023-02-26T01:29:09.518Z,2.83
2023-02-26T01:30:09.553Z,2.85
2023-02-26T01:31:09.580Z,2.79
2023-02-26T01:32:09.600Z,2.83
2023-02-26T01:33:09.445Z,2.72
2023-02-26T01:34:09.453Z,2.67
2023-02-26T01:35:09.437Z,2.69
2023-02-26T01:36:09.433Z,2.72
2023-02-26T01:37:09.397Z,2.67
2023-02-26T01:38:09.387Z,2.72
2023-02-26T01:39:09.375Z,2.64
2023-02-26T01:40:09.400Z,2.68
2023-02-26T01:41:09.398Z,2.69
2023-02-26T01:42:09.386Z,2.68
2023-02-26T01:43:09.342Z,2.69
2023-02-26T01:44:09.320Z,2.75
2023-02-26T01:45:09.311Z,2.86
2023-02-26T01:46:09.344Z,2.85
2023-02-26T01:47:09.320Z,2.72
2023-02-26T01:48:09.302Z,2.87
2023-02-26T01:49:09.273Z,2.85
2023-02-26T01:50:09.255Z,2.85
2023-02-26T01:51:09.252Z,2.90
2023-02-26T01:52:09.236Z,2.89
2023-02-26T01:53:09.219Z,2.98
2023-02-26T01:54:09.253Z,3.03
2023-02-26T01:55:09.200Z,3.08
2023-02-26T01:56:09.197Z,3.07
2023-02-26T01:57:09.203Z,3.07
2023-02-26T01:58:09.168Z,3.07
2023-02-26T01:59:09.161Z,3.05
2023-02-26T02:00:09.174Z,3.10
2023-02-26T02:01:09.151Z,3.11
2023-02-26T02:02:09.158Z,3.07
2023-02-26T02:03:09.210Z,3.04
2023-02-26T02:04:09.097Z,3.07
2023-02-26T02:05:09.120Z,3.11
2023-02-26T02:06:09.107Z,3.07
2023-02-26T02:07:09.067Z,3.07
2023-02-26T02:08:09.080Z,3.19
2023-02-26T02:09:09.046Z,3.03
2023-02-26T02:10:09.036Z,3.05
2023-02-26T02:11:09.017Z,3.10
2023-02-26T02:12:09.083Z,3.21
2023-02-26T02:13:09.000Z,3.08
2023-02-26T02:14:09.033Z,3.16
2023-02-26T02:15:09.028Z,3.14
2023-02-26T02:16:08.993Z,3.28
2023-02-26T02:17:08.992Z,3.19
2023-02-26T02:18:09.027Z,3.28
2023-02-26T02:19:09.030Z,3.28
2023-02-26T02:20:08.943Z,3.29
2023-02-26T02:21:08.909Z,3.32
2023-02-26T02:22:08.896Z,3.29
2023-02-26T02:23:08.906Z,3.28
2023-02-26T02:24:08.906Z,3.29
2023-02-26T02:25:08.861Z,3.41
2023-02-26T02:26:08.848Z,3.32
2023-02-26T02:27:08.844Z,3.36
2023-02-26T02:28:08.827Z,3.40
2023-02-26T02:29:08.818Z,3.42
2023-02-26T02:30:08.867Z,3.34
2023-02-26T02:31:08.929Z,3.40
2023-02-26T02:32:09.065Z,3.34
2023-02-26T02:33:08.767Z,3.36
2023-02-26T02:34:08.763Z,3.36
2023-02-26T02:35:08.769Z,3.36
2023-02-26T02:36:08.831Z,3.29
2023-02-26T02:37:08.726Z,3.32
2023-02-26T02:38:08.710Z,3.29
2023-02-26T02:39:08.706Z,3.32
2023-02-26T02:40:08.693Z,3.29
2023-02-26T02:41:08.684Z,3.28
2023-02-26T02:42:08.695Z,3.36
2023-02-26T02:43:09.397Z,3.41
2023-02-26T02:44:08.670Z,3.32
2023-02-26T02:45:08.637Z,3.32
2023-02-26T02:46:08.746Z,3.32
2023-02-26T02:47:08.713Z,3.40
2023-02-26T02:48:08.655Z,3.37
2023-02-26T02:49:08.592Z,3.40
2023-02-26T02:50:08.592Z,3.36
2023-02-26T02:51:08.608Z,3.42
2023-02-26T02:52:08.563Z,3.42
2023-02-26T02:53:08.553Z,3.32
2023-02-26T02:54:08.563Z,3.44
2023-02-26T02:55:08.532Z,3.44
2023-02-26T02:56:08.517Z,3.42
2023-02-26T02:57:08.500Z,3.42
2023-02-26T02:58:08.496Z,3.48
2023-02-26T02:59:08.481Z,3.36
2023-02-26T03:00:08.553Z,3.44
2023-02-26T03:01:08.494Z,3.42
2023-02-26T03:02:08.452Z,3.55
2023-02-26T03:03:08.444Z,3.41
2023-02-26T03:04:08.422Z,3.42
2023-02-26T03:05:08.421Z,3.50
2023-02-26T03:06:08.434Z,3.50
2023-02-26T03:07:08.440Z,3.60
2023-02-26T03:08:08.385Z,3.62
2023-02-26T03:09:08.380Z,3.63
2023-02-26T03:10:08.360Z,3.62
2023-02-26T03:11:08.350Z,3.59
2023-02-26T03:12:08.382Z,3.70
2023-02-26T03:13:08.327Z,3.69
2023-02-26T03:14:08.319Z,3.60
2023-02-26T03:15:08.305Z,3.60
2023-02-26T03:16:08.332Z,3.59
2023-02-26T03:17:08.294Z,3.58
2023-02-26T03:18:08.293Z,3.56
2023-02-26T03:19:08.260Z,3.59
2023-02-26T03:20:08.247Z,3.59
2023-02-26T03:21:08.244Z,3.55
2023-02-26T03:22:08.297Z,3.53
2023-02-26T03:23:08.240Z,3.48
2023-02-26T03:24:08.272Z,3.48
2023-02-26T03:25:08.196Z,3.56
2023-02-26T03:26:10.588Z,3.59
2023-02-26T03:27:08.178Z,3.56
2023-02-26T03:28:08.175Z,3.60
2023-02-26T03:29:08.203Z,3.55
2023-02-26T03:30:08.378Z,3.58
2023-02-26T03:31:08.145Z,3.63
2023-02-26T03:32:08.350Z,3.66
2023-02-26T03:33:08.107Z,3.59
2023-02-26T03:34:08.130Z,3.65
2023-02-26T03:35:08.095Z,3.60
2023-02-26T03:36:08.118Z,3.58
2023-02-26T03:37:08.088Z,3.68
2023-02-26T03:38:08.064Z,3.62
2023-02-26T03:39:08.076Z,3.63
2023-02-26T03:40:08.032Z,3.68
2023-02-26T03:41:08.016Z,3.70
2023-02-26T03:42:08.024Z,3.65
2023-02-26T03:43:08.004Z,3.66
2023-02-26T03:44:08.008Z,3.68
2023-02-26T03:45:08.004Z,3.65
2023-02-26T03:46:08.030Z,3.63
2023-02-26T03:47:07.956Z,3.59
2023-02-26T03:48:07.979Z,3.65
2023-02-26T03:49:08.035Z,3.65
2023-02-26T03:50:07.972Z,3.60
2023-02-26T03:51:07.920Z,3.59
2023-02-26T03:52:07.899Z,3.63
2023-02-26T03:53:07.928Z,3.58
2023-02-26T03:54:07.917Z,3.59
2023-02-26T03:55:07.886Z,3.55
2023-02-26T03:56:07.858Z,3.59
2023-02-26T03:57:07.845Z,3.63
2023-02-26T03:58:07.842Z,3.58
2023-02-26T03:59:07.822Z,3.66
2023-02-26T04:00:07.900Z,3.58
2023-02-26T04:01:07.792Z,3.73
2023-02-26T04:02:07.880Z,3.62
2023-02-26T04:03:07.773Z,3.65
2023-02-26T04:04:07.828Z,3.70
2023-02-26T04:05:07.801Z,3.66
2023-02-26T04:06:07.799Z,3.74
2023-02-26T04:07:07.731Z,3.63
2023-02-26T04:08:07.754Z,3.69
2023-02-26T04:09:07.719Z,3.69
2023-02-26T04:10:07.717Z,3.70
2023-02-26T04:11:07.707Z,3.73
2023-02-26T04:12:07.709Z,3.73
2023-02-26T04:13:07.663Z,3.68
2023-02-26T04:14:07.693Z,3.74
2023-02-26T04:15:07.673Z,3.73
2023-02-26T04:16:07.629Z,3.70
2023-02-26T04:17:07.629Z,3.69
2023-02-26T04:18:07.703Z,3.70
2023-02-26T04:19:07.597Z,3.73
2023-02-26T04:20:07.597Z,3.83
2023-02-26T04:21:07.582Z,3.73
2023-02-26T04:22:07.585Z,3.73
2023-02-26T04:23:07.564Z,3.76
2023-02-26T04:24:07.619Z,3.84
2023-02-26T04:25:07.535Z,3.94
2023-02-26T04:26:07.516Z,3.77
2023-02-26T04:27:07.529Z,3.80
2023-02-26T04:28:07.496Z,3.87
2023-02-26T04:29:07.490Z,3.92
2023-02-26T04:30:07.507Z,3.86
2023-02-26T04:31:07.548Z,3.86
2023-02-26T04:32:07.720Z,3.80
2023-02-26T04:33:07.462Z,3.83
2023-02-26T04:34:07.423Z,3.83
2023-02-26T04:35:07.409Z,3.88
2023-02-26T04:36:07.439Z,3.91
2023-02-26T04:37:07.396Z,3.88
2023-02-26T04:38:07.379Z,3.92
2023-02-26T04:39:07.384Z,3.88
2023-02-26T04:40:07.358Z,3.88
2023-02-26T04:41:07.345Z,3.98
2023-02-26T04:42:07.370Z,3.99
2023-02-26T04:43:07.339Z,3.96
2023-02-26T04:44:07.327Z,4.02
2023-02-26T04:45:07.319Z,4.01
2023-02-26T04:46:07.358Z,4.04
2023-02-26T04:47:07.297Z,4.04
2023-02-26T04:48:07.301Z,4.01
2023-02-26T04:49:07.261Z,4.04
2023-02-26T04:50:07.288Z,4.01
2023-02-26T04:51:07.257Z,4.01
2023-02-26T04:52:07.277Z,3.95
2023-02-26T04:53:07.204Z,4.05
2023-02-26T04:54:07.230Z,3.96
2023-02-26T04:55:07.187Z,3.94
2023-02-26T04:56:07.166Z,3.95
2023-02-26T04:57:07.161Z,4.04
2023-02-26T04:58:07.152Z,4.04
2023-02-26T04:59:07.170Z,4.02
2023-02-26T05:00:07.167Z,4.02
2023-02-26T05:01:07.118Z,4.01
2023-02-26T05:02:07.104Z,4.05
2023-02-26T05:03:07.098Z,3.96
2023-02-26T05:04:07.229Z,4.04
2023-02-26T05:05:07.082Z,3.99
2023-02-26T05:06:07.132Z,4.04
2023-02-26T05:07:07.045Z,4.06
2023-02-26T05:08:07.048Z,4.10
2023-02-26T05:09:07.028Z,4.08
2023-02-26T05:10:07.020Z,4.06
2023-02-26T05:11:07.017Z,4.13
2023-02-26T05:12:07.034Z,4.12
2023-02-26T05:13:06.999Z,4.13
2023-02-26T05:14:06.973Z,4.13
2023-02-26T05:15:07.000Z,4.13
2023-02-26T05:16:07.023Z,4.19
2023-02-26T05:17:06.940Z,4.05
2023-02-26T05:18:06.995Z,4.06
2023-02-26T05:19:06.912Z,4.12
2023-02-26T05:20:06.938Z,4.08
2023-02-26T05:21:06.896Z,4.16
2023-02-26T05:22:06.900Z,4.12
2023-02-26T05:23:06.870Z,4.13
2023-02-26T05:24:06.879Z,4.12
2023-02-26T05:25:06.848Z,4.17
2023-02-26T05:26:06.839Z,4.19
2023-02-26T05:27:06.841Z,4.13
2023-02-26T05:28:06.870Z,4.13
2023-02-26T05:29:06.817Z,4.10
2023-02-26T05:30:06.806Z,4.17
2023-02-26T05:31:06.962Z,4.13
2023-02-26T05:32:06.825Z,4.14
2023-02-26T05:33:06.775Z,4.12
2023-02-26T05:34:06.751Z,4.06
2023-02-26T05:35:06.735Z,4.01
2023-02-26T05:36:06.809Z,4.04
2023-02-26T05:37:06.722Z,4.02
2023-02-26T05:38:06.742Z,3.96
2023-02-26T05:39:06.696Z,4.02
2023-02-26T05:40:06.690Z,3.98
2023-02-26T05:41:06.672Z,4.01
2023-02-26T05:42:06.690Z,3.96
2023-02-26T05:43:06.655Z,3.99
2023-02-26T05:44:06.636Z,4.01
2023-02-26T05:45:06.638Z,4.04
2023-02-26T05:46:06.625Z,3.91
2023-02-26T05:47:06.672Z,3.98
2023-02-26T05:48:06.614Z,4.01
2023-02-26T05:49:06.575Z,3.98
2023-02-26T05:50:06.588Z,3.94
2023-02-26T05:51:06.557Z,4.02
2023-02-26T05:52:06.548Z,4.04
2023-02-26T05:53:06.553Z,4.02
2023-02-26T05:54:06.607Z,4.01
2023-02-26T05:55:06.519Z,4.16
2023-02-26T05:56:06.505Z,4.13
2023-02-26T05:57:06.488Z,4.13
2023-02-26T05:58:06.484Z,4.13
2023-02-26T05:59:06.463Z,4.16
2023-02-26T06:00:06.481Z,4.13
2023-02-26T06:01:06.472Z,4.24
2023-02-26T06:02:06.508Z,4.17
2023-02-26T06:03:06.573Z,4.30
2023-02-26T06:04:06.407Z,4.17
2023-02-26T06:05:06.396Z,4.30
2023-02-26T06:06:06.415Z,4.30
2023-02-26T06:07:06.388Z,4.37
2023-02-26T06:08:06.359Z,4.37
2023-02-26T06:09:06.355Z,4.37
2023-02-26T06:10:06.338Z,4.38
2023-02-26T06:11:06.346Z,4.35
2023-02-26T06:12:06.362Z,4.44
2023-02-26T06:13:06.313Z,4.40
2023-02-26T06:14:06.293Z,4.48
2023-02-26T06:15:06.281Z,4.50
2023-02-26T06:16:06.359Z,4.48
2023-02-26T06:17:06.260Z,4.42
2023-02-26T06:18:06.282Z,4.53
2023-02-26T06:19:06.264Z,4.56
2023-02-26T06:20:06.221Z,4.48
2023-02-26T06:21:06.243Z,4.48
2023-02-26T06:22:06.267Z,4.45
2023-02-26T06:23:06.193Z,4.49
2023-02-26T06:24:06.343Z,4.52
2023-02-26T06:25:06.170Z,4.60
2023-02-26T06:26:06.160Z,4.55
2023-02-26T06:27:06.163Z,4.60
2023-02-26T06:28:06.133Z,4.60
2023-02-26T06:29:06.132Z,4.68
2023-02-26T06:30:06.182Z,4.73
2023-02-26T06:31:06.156Z,4.71
2023-02-26T06:32:06.225Z,4.75
2023-02-26T06:33:06.084Z,4.71
2023-02-26T06:34:06.074Z,4.71
2023-02-26T06:35:06.101Z,4.78
2023-02-26T06:36:06.087Z,4.75
2023-02-26T06:37:06.069Z,4.84
2023-02-26T06:38:06.027Z,4.78
2023-02-26T06:39:06.046Z,4.75
2023-02-26T06:40:06.014Z,4.82
2023-02-26T06:41:05.992Z,4.80
2023-02-26T06:42:06.010Z,4.96
2023-02-26T06:43:05.975Z,4.86
2023-02-26T06:44:05.982Z,5.00
2023-02-26T06:45:05.965Z,5.02
2023-02-26T06:46:06.031Z,4.94
2023-02-26T06:47:05.931Z,5.10
2023-02-26T06:48:05.955Z,5.02
2023-02-26T06:49:05.921Z,5.04
2023-02-26T06:50:05.899Z,5.05
2023-02-26T06:51:07.445Z,5.12
2023-02-26T06:52:05.880Z,5.11
2023-02-26T06:53:05.874Z,5.15
2023-02-26T06:54:05.922Z,5.10
2023-02-26T06:55:05.841Z,5.08
2023-02-26T06:56:05.834Z,5.15
2023-02-26T06:57:05.816Z,5.15
2023-02-26T06:58:05.831Z,5.15
2023-02-26T06:59:05.793Z,5.21
2023-02-26T07:00:05.905Z,5.18
2023-02-26T07:01:05.789Z,5.26
2023-02-26T07:02:05.784Z,5.26
2023-02-26T07:03:05.760Z,5.29
2023-02-26T07:04:05.734Z,5.21
2023-02-26T07:05:05.723Z,5.23
2023-02-26T07:06:25.718Z,5.28
2023-02-26T07:07:06.747Z,5.38
2023-02-26T07:08:05.682Z,5.35
2023-02-26T07:09:05.749Z,5.44
2023-02-26T07:10:05.676Z,5.46
2023-02-26T07:11:05.669Z,5.50
2023-02-26T07:12:05.679Z,5.54
2023-02-26T07:13:05.648Z,5.56
2023-02-26T07:14:05.620Z,5.54
2023-02-26T07:15:05.602Z,5.59
2023-02-26T07:16:05.611Z,5.66
2023-02-26T07:17:05.657Z,5.62
2023-02-26T07:18:05.602Z,5.66
2023-02-26T07:19:05.562Z,5.65
2023-02-26T07:20:05.555Z,5.69
2023-02-26T07:21:05.545Z,5.75
2023-02-26T07:22:05.531Z,5.71
2023-02-26T07:23:05.548Z,5.65
2023-02-26T07:24:05.543Z,5.71
2023-02-26T07:25:05.511Z,5.75
2023-02-26T07:26:05.482Z,5.73
2023-02-26T07:27:05.492Z,5.75
2023-02-26T07:28:05.479Z,5.69
2023-02-26T07:29:05.449Z,5.80
2023-02-26T07:30:05.501Z,5.83
2023-02-26T07:31:05.505Z,5.83
2023-02-26T07:32:05.436Z,5.87
2023-02-26T07:33:05.408Z,5.86
2023-02-26T07:34:05.400Z,5.87
2023-02-26T07:35:05.410Z,5.84
2023-02-26T07:36:05.420Z,5.94
2023-02-26T07:37:05.362Z,5.91
2023-02-26T07:38:05.346Z,5.91
2023-02-26T07:39:05.369Z,5.86
2023-02-26T07:40:05.347Z,5.90
2023-02-26T07:41:05.318Z,5.91
2023-02-26T07:42:05.327Z,5.89
2023-02-26T07:43:05.287Z,5.86
2023-02-26T07:44:05.299Z,5.94
2023-02-26T07:45:05.275Z,5.98
2023-02-26T07:46:05.298Z,5.98
2023-02-26T07:47:05.280Z,6.04
2023-02-26T07:48:05.258Z,5.94
2023-02-26T07:49:05.228Z,6.05
2023-02-26T07:50:05.214Z,6.05
2023-02-26T07:51:05.202Z,6.08
2023-02-26T07:52:05.224Z,6.12
2023-02-26T07:53:05.169Z,6.14
2023-02-26T07:54:05.196Z,6.08
2023-02-26T07:55:05.191Z,6.19
2023-02-26T07:56:05.153Z,6.16
2023-02-26T07:57:05.151Z,6.16
2023-02-26T07:58:05.116Z,6.14
2023-02-26T07:59:05.108Z,6.22
2023-02-26T08:00:05.122Z,6.20
2023-02-26T08:01:05.207Z,6.36
2023-02-26T08:02:05.114Z,6.31
2023-02-26T08:03:05.081Z,6.41
2023-02-26T08:04:05.224Z,6.30
2023-02-26T08:05:05.062Z,6.44
2023-02-26T08:06:05.047Z,6.59
2023-02-26T08:07:05.016Z,6.56
2023-02-26T08:08:05.006Z,6.64
2023-02-26T08:09:05.011Z,6.46
2023-02-26T08:10:04.990Z,6.64
2023-02-26T08:11:04.991Z,6.54
2023-02-26T08:12:05.009Z,6.57
2023-02-26T08:13:04.945Z,6.63
2023-02-26T08:14:04.935Z,6.67
2023-02-26T08:15:04.927Z,6.66
2023-02-26T08:16:04.937Z,6.60
2023-02-26T08:17:04.898Z,6.75
2023-02-26T08:18:04.930Z,6.70
2023-02-26T08:19:04.877Z,6.74
2023-02-26T08:20:04.881Z,6.78
2023-02-26T08:21:04.852Z,6.69
2023-02-26T08:22:04.857Z,6.77
2023-02-26T08:23:04.841Z,6.87
2023-02-26T08:24:04.850Z,6.77
2023-02-26T08:25:04.840Z,6.81
2023-02-26T08:26:04.809Z,6.81
2023-02-26T08:27:04.815Z,6.88
2023-02-26T08:28:04.801Z,6.92
2023-02-26T08:29:04.792Z,6.85
2023-02-26T08:30:04.777Z,6.88
2023-02-26T08:31:04.833Z,6.87
2023-02-26T08:32:04.876Z,6.89
2023-02-26T08:33:04.738Z,6.97
2023-02-26T08:34:04.713Z,6.96
2023-02-26T08:35:04.694Z,6.97
2023-02-26T08:36:04.730Z,6.96
2023-02-26T08:37:04.673Z,6.95
2023-02-26T08:38:04.676Z,7.00
2023-02-26T08:39:04.650Z,6.96
2023-02-26T08:40:04.632Z,7.00
2023-02-26T08:41:04.632Z,6.93
2023-02-26T08:42:04.682Z,7.00
2023-02-26T08:43:04.641Z,6.93
2023-02-26T08:44:04.644Z,6.97
2023-02-26T08:45:04.597Z,7.03
2023-02-26T08:46:04.578Z,7.02
2023-02-26T08:47:04.578Z,7.05
2023-02-26T08:48:04.594Z,7.13
2023-02-26T08:49:04.543Z,7.06
2023-02-26T08:50:04.524Z,7.14
2023-02-26T08:51:04.520Z,7.20
2023-02-26T08:52:04.584Z,7.14
2023-02-26T08:53:04.490Z,7.18
2023-02-26T08:54:04.518Z,7.20
2023-02-26T08:55:04.494Z,7.24
2023-02-26T08:56:04.486Z,7.33
2023-02-26T08:57:04.445Z,7.28
2023-02-26T08:58:04.435Z,7.31
2023-02-26T08:59:04.447Z,7.29
2023-02-26T09:00:04.431Z,7.35
2023-02-26T09:01:04.401Z,7.40
2023-02-26T09:02:04.999Z,7.51
2023-02-26T09:03:04.522Z,7.47
2023-02-26T09:04:04.368Z,7.56
2023-02-26T09:05:04.356Z,7.61
2023-02-26T09:06:04.420Z,7.61
2023-02-26T09:07:04.344Z,7.63
2023-02-26T09:08:04.363Z,7.61
2023-02-26T09:09:04.325Z,7.61
2023-02-26T09:10:04.300Z,7.61
2023-02-26T09:11:04.326Z,7.58
2023-02-26T09:12:04.326Z,7.61
2023-02-26T09:13:04.269Z,7.67
2023-02-26T09:14:04.260Z,7.67
2023-02-26T09:15:04.285Z,7.61
2023-02-26T09:16:04.274Z,7.63
2023-02-26T09:17:04.225Z,7.67
2023-02-26T09:18:04.263Z,7.60
2023-02-26T09:19:04.224Z,7.61
2023-02-26T09:20:04.216Z,7.63
2023-02-26T09:21:04.179Z,7.60
2023-02-26T09:22:06.086Z,7.53
2023-02-26T09:23:04.169Z,7.57
2023-02-26T09:24:04.182Z,7.45
2023-02-26T09:25:04.137Z,7.43
2023-02-26T09:26:04.127Z,7.45
2023-02-26T09:27:04.127Z,7.47
2023-02-26T09:28:04.170Z,7.63
2023-02-26T09:29:04.160Z,7.56
2023-02-26T09:30:04.143Z,7.67
2023-02-26T09:31:04.238Z,7.75
2023-02-26T09:32:04.181Z,7.75
2023-02-26T09:33:04.046Z,7.80
2023-02-26T09:34:04.031Z,7.83
2023-02-26T09:35:04.037Z,7.82
2023-02-26T09:36:04.102Z,7.83
2023-02-26T09:37:03.996Z,7.87
2023-02-26T09:38:03.997Z,7.73
2023-02-26T09:39:03.996Z,7.87
2023-02-26T09:40:04.002Z,7.87
2023-02-26T09:41:03.955Z,7.88
2023-02-26T09:42:03.955Z,7.91
2023-02-26T09:43:03.992Z,7.94
2023-02-26T09:44:03.918Z,7.91
2023-02-26T09:45:03.913Z,8.03
2023-02-26T09:46:03.942Z,8.01
2023-02-26T09:47:03.914Z,8.09
2023-02-26T09:48:03.906Z,8.12
2023-02-26T09:49:03.895Z,8.01
2023-02-26T09:50:03.852Z,8.10
2023-02-26T09:51:03.840Z,8.09
2023-02-26T09:52:03.860Z,8.16
2023-02-26T09:53:03.819Z,8.24
2023-02-26T09:54:03.950Z,8.23
2023-02-26T09:55:03.797Z,8.30
2023-02-26T09:56:03.790Z,8.36
2023-02-26T09:57:03.795Z,8.31
2023-02-26T09:58:03.797Z,8.33
2023-02-26T09:59:03.780Z,8.36
2023-02-26T10:00:03.793Z,8.42
2023-02-26T10:01:03.746Z,8.46
2023-02-26T10:02:03.778Z,8.51
2023-02-26T10:03:03.790Z,8.51
2023-02-26T10:04:03.750Z,8.58
2023-02-26T10:05:03.685Z,8.51
2023-02-26T10:06:03.727Z,8.45
2023-02-26T10:07:03.679Z,8.45
2023-02-26T10:08:03.668Z,8.45
2023-02-26T10:09:03.645Z,8.53
2023-02-26T10:10:03.630Z,8.61
2023-02-26T10:11:03.627Z,8.56
2023-02-26T10:12:03.644Z,8.64
2023-02-26T10:13:03.599Z,8.61
2023-02-26T10:14:03.638Z,8.74
2023-02-26T10:15:03.578Z,8.76
2023-02-26T10:16:03.561Z,8.78
2023-02-26T10:17:03.589Z,8.81
2023-02-26T10:18:03.669Z,8.81
2023-02-26T10:19:03.553Z,8.94
2023-02-26T10:20:03.540Z,8.94
2023-02-26T10:21:03.513Z,9.04
2023-02-26T10:22:03.501Z,9.11
2023-02-26T10:23:03.516Z,9.13
2023-02-26T10:24:03.514Z,9.18
2023-02-26T10:25:03.476Z,9.28
2023-02-26T10:26:03.444Z,9.29
2023-02-26T10:27:03.480Z,9.34
2023-02-26T10:28:03.443Z,9.39
2023-02-26T10:29:03.411Z,9.47
2023-02-26T10:30:03.438Z,9.54
2023-02-26T10:31:03.621Z,9.48
2023-02-26T10:32:03.489Z,9.47
2023-02-26T10:33:03.366Z,9.58
2023-02-26T10:34:03.350Z,9.56
2023-02-26T10:35:03.372Z,9.46
2023-02-26T10:36:03.361Z,9.46
2023-02-26T10:37:03.319Z,9.39
2023-02-26T10:38:03.307Z,9.37
2023-02-26T10:39:03.293Z,9.44
2023-02-26T10:40:03.286Z,9.39
2023-02-26T10:41:03.298Z,9.43
2023-02-26T10:42:03.290Z,9.44
2023-02-26T10:43:03.248Z,9.39
2023-02-26T10:44:03.246Z,9.41
2023-02-26T10:45:03.228Z,9.31
2023-02-26T10:46:03.278Z,9.26
2023-02-26T10:47:03.234Z,9.25
2023-02-26T10:48:03.219Z,9.13
2023-02-26T10:49:03.184Z,9.02
2023-02-26T10:50:03.168Z,9.03
2023-02-26T10:51:03.226Z,9.02
2023-02-26T10:52:03.213Z,8.92
2023-02-26T10:53:03.132Z,8.92
2023-02-26T10:54:03.157Z,8.91
2023-02-26T10:55:03.117Z,8.92
2023-02-26T10:56:03.097Z,8.92
2023-02-26T10:57:03.113Z,8.89
2023-02-26T10:58:03.086Z,8.89
2023-02-26T10:59:03.102Z,8.87
2023-02-26T11:00:03.099Z,8.87
2023-02-26T11:01:03.080Z,8.95
2023-02-26T11:02:05.974Z,8.92
2023-02-26T11:03:03.031Z,8.91
2023-02-26T11:04:03.009Z,8.88
2023-02-26T11:05:07.754Z,8.92
2023-02-26T11:06:04.063Z,9.10
2023-02-26T11:07:03.063Z,9.13
2023-02-26T11:08:02.969Z,9.18
2023-02-26T11:09:02.962Z,9.23
2023-02-26T11:10:02.958Z,9.14
2023-02-26T11:11:02.953Z,9.18
2023-02-26T11:12:02.964Z,9.25
2023-02-26T11:13:02.913Z,9.22
2023-02-26T11:14:02.914Z,9.16
2023-02-26T11:15:02.890Z,9.21
2023-02-26T11:16:02.982Z,9.13
2023-02-26T11:17:02.875Z,9.19
2023-02-26T11:18:02.896Z,9.18
2023-02-26T11:19:02.858Z,9.18
2023-02-26T11:20:02.839Z,9.26
2023-02-26T11:21:02.824Z,9.34
2023-02-26T11:22:02.843Z,9.47
2023-02-26T11:23:02.850Z,9.47
2023-02-26T11:24:02.842Z,9.50
2023-02-26T11:25:02.794Z,9.47
2023-02-26T11:26:02.777Z,9.36
2023-02-26T11:27:02.783Z,9.37
2023-02-26T11:28:02.760Z,9.36
2023-02-26T11:29:02.738Z,9.29
2023-02-26T11:30:02.773Z,9.34
2023-02-26T11:31:02.892Z,9.34
2023-02-26T11:32:02.864Z,9.31
2023-02-26T11:33:02.692Z,9.34
2023-02-26T11:34:02.678Z,9.32
2023-02-26T11:35:02.672Z,9.28
2023-02-26T11:36:02.744Z,9.29
2023-02-26T11:37:02.648Z,9.23
2023-02-26T11:38:02.796Z,9.26
2023-02-26T11:39:02.681Z,9.37
2023-02-26T11:40:02.619Z,9.32
2023-02-26T11:41:02.596Z,9.32
2023-02-26T11:42:02.686Z,9.29
2023-02-26T11:43:02.583Z,9.28
2023-02-26T11:44:02.573Z,9.26
2023-02-26T11:45:02.560Z,9.19
2023-02-26T11:46:02.593Z,9.25
2023-02-26T11:47:02.534Z,9.28
2023-02-26T11:48:02.538Z,9.21
2023-02-26T11:49:02.529Z,9.22
2023-02-26T11:50:02.543Z,9.19
2023-02-26T11:51:02.489Z,9.13
2023-02-26T11:52:02.503Z,9.03
2023-02-26T11:53:02.470Z,9.00
2023-02-26T11:54:02.481Z,9.00
2023-02-26T11:55:02.498Z,9.00
2023-02-26T11:56:02.437Z,8.94
2023-02-26T11:57:02.441Z,8.91
2023-02-26T11:58:02.414Z,8.97
2023-02-26T11:59:02.402Z,9.03
2023-02-26T12:00:02.425Z,8.97
2023-02-26T12:01:02.378Z,8.92
2023-02-26T12:02:02.359Z,8.94
2023-02-26T12:03:02.378Z,9.00
2023-02-26T12:04:02.442Z,8.92
2023-02-26T12:05:02.326Z,8.88
2023-02-26T12:06:02.417Z,8.81
2023-02-26T12:07:02.303Z,8.84
2023-02-26T12:08:02.309Z,8.81
2023-02-26T12:09:02.303Z,8.69
2023-02-26T12:10:02.267Z,8.76
2023-02-26T12:11:02.283Z,8.64
2023-02-26T12:12:02.257Z,8.56
2023-02-26T12:13:02.231Z,8.48
2023-02-26T12:14:02.244Z,8.41
2023-02-26T12:15:02.203Z,8.45
2023-02-26T12:16:02.268Z,8.37
2023-02-26T12:17:02.203Z,8.41
2023-02-26T12:18:02.369Z,8.41
2023-02-26T12:19:02.175Z,8.41
2023-02-26T12:20:02.188Z,8.37
2023-02-26T12:21:02.139Z,8.34
2023-02-26T12:22:02.127Z,8.48
2023-02-26T12:23:02.113Z,8.53
2023-02-26T12:24:02.145Z,8.64
2023-02-26T12:25:02.092Z,8.63
2023-02-26T12:26:02.110Z,8.61
2023-02-26T12:27:02.173Z,8.71
2023-02-26T12:28:02.066Z,8.64
2023-02-26T12:29:02.046Z,8.70
2023-02-26T12:30:02.101Z,8.73
2023-02-26T12:31:02.088Z,8.81
2023-02-26T12:32:02.143Z,8.79
2023-02-26T12:33:02.010Z,8.78
2023-02-26T12:34:01.989Z,8.85
2023-02-26T12:35:02.028Z,8.88
2023-02-26T12:36:01.990Z,8.84
2023-02-26T12:37:01.965Z,8.88
2023-02-26T12:38:01.956Z,8.84
2023-02-26T12:39:01.946Z,8.89
2023-02-26T12:40:01.932Z,8.84
2023-02-26T12:41:01.914Z,8.82
2023-02-26T12:42:01.943Z,8.81
2023-02-26T12:43:01.917Z,8.76
2023-02-26T12:44:01.889Z,8.81
2023-02-26T12:45:01.889Z,8.81
2023-02-26T12:46:01.867Z,8.73
2023-02-26T12:47:01.848Z,8.67
2023-02-26T12:48:01.873Z,8.74
2023-02-26T12:49:01.834Z,8.74
2023-02-26T12:50:01.819Z,8.67
2023-02-26T12:51:01.806Z,8.67
2023-02-26T12:52:01.793Z,8.64
2023-02-26T12:53:01.788Z,8.64
2023-02-26T12:54:01.853Z,8.64
2023-02-26T12:55:01.757Z,8.67
2023-02-26T12:56:01.768Z,8.55
2023-02-26T12:57:01.744Z,8.52
2023-02-26T12:58:01.728Z,8.55
2023-02-26T12:59:01.742Z,8.55
2023-02-26T13:00:01.830Z,8.56
2023-02-26T13:01:01.716Z,8.52
2023-02-26T13:02:01.961Z,8.55
2023-02-26T13:03:01.667Z,8.56
2023-02-26T13:04:01.742Z,8.55
2023-02-26T13:05:01.647Z,8.48
2023-02-26T13:06:01.683Z,8.52
2023-02-26T13:07:01.625Z,8.53
2023-02-26T13:08:01.603Z,8.52
2023-02-26T13:09:01.597Z,8.53
2023-02-26T13:10:01.586Z,8.49
2023-02-26T13:11:01.601Z,8.55
2023-02-26T13:12:01.617Z,8.60
2023-02-26T13:13:01.556Z,8.53
2023-02-26T13:14:01.544Z,8.53
2023-02-26T13:15:01.545Z,8.60
2023-02-26T13:16:01.610Z,8.56
2023-02-26T13:17:01.506Z,8.49
2023-02-26T13:18:01.531Z,8.53